createdAt,value
2022-08-30T00:00:31.016Z,17.72
2022-08-30T00:03:01.006Z,17.69
2022-08-30T00:05:30.651Z,17.66
2022-08-30T00:08:07.817Z,17.66
2022-08-30T00:10:36.723Z,17.54
2022-08-30T00:13:07.616Z,17.47
2022-08-30T00:15:36.587Z,17.41
2022-08-30T00:18:06.409Z,17.43
2022-08-30T00:20:37.851Z,17.42
2022-08-30T00:23:08.352Z,17.33
2022-08-30T00:25:37.115Z,17.28
2022-08-30T00:28:06.475Z,17.27
2022-08-30T00:30:35.053Z,17.31
2022-08-30T00:33:04.476Z,17.35
2022-08-30T00:35:33.165Z,17.28
2022-08-30T00:38:02.587Z,17.21
2022-08-30T00:40:34.295Z,17.10
2022-08-30T00:43:06.027Z,17.07
2022-08-30T00:45:38.743Z,17.06
2022-08-30T00:48:09.174Z,17.10
2022-08-30T00:50:44.687Z,17.14
2022-08-30T00:53:21.283Z,16.97
2022-08-30T00:55:51.609Z,16.96
2022-08-30T00:58:26.362Z,16.98
2022-08-30T01:00:59.092Z,17.02
2022-08-30T01:03:28.935Z,16.93
2022-08-30T01:06:00.420Z,16.94
2022-08-30T01:08:28.938Z,16.89
2022-08-30T01:11:00.758Z,16.83
2022-08-30T01:13:29.815Z,16.72
2022-08-30T01:16:01.051Z,16.71
2022-08-30T01:18:32.539Z,16.69
2022-08-30T01:21:13.732Z,16.74
2022-08-30T01:23:48.971Z,16.80
2022-08-30T01:26:21.874Z,16.79
2022-08-30T01:28:56.568Z,16.72
2022-08-30T01:31:25.543Z,16.64
2022-08-30T01:33:55.292Z,16.58
2022-08-30T01:36:26.266Z,16.55
2022-08-30T01:38:59.380Z,16.52
2022-08-30T01:41:33.348Z,16.44
2022-08-30T01:44:06.669Z,16.42
2022-08-30T01:46:40.693Z,16.47
2022-08-30T01:49:16.341Z,16.54
2022-08-30T01:51:46.567Z,16.57
2022-08-30T01:54:16.866Z,16.57
2022-08-30T01:56:45.385Z,16.50
2022-08-30T01:59:14.431Z,16.50
2022-08-30T02:01:43.823Z,16.53
2022-08-30T02:04:14.518Z,16.53
2022-08-30T02:06:44.760Z,16.49
2022-08-30T02:09:14.480Z,16.45
2022-08-30T02:11:45.762Z,16.38
2022-08-30T02:14:14.811Z,16.43
2022-08-30T02:16:44.381Z,16.42
2022-08-30T02:19:13.393Z,16.32
2022-08-30T02:21:43.398Z,16.29
2022-08-30T02:24:12.097Z,16.23
2022-08-30T02:26:41.027Z,16.17
2022-08-30T02:29:11.167Z,16.17
2022-08-30T02:31:39.819Z,16.21
2022-08-30T02:34:09.006Z,16.21
2022-08-30T02:36:39.534Z,16.21
2022-08-30T02:39:09.033Z,16.24
2022-08-30T02:41:38.848Z,16.26
2022-08-30T02:44:08.896Z,16.10
2022-08-30T02:46:39.636Z,16.04
2022-08-30T02:49:32.171Z,16.13
2022-08-30T02:51:59.069Z,16.11
2022-08-30T02:54:28.563Z,16.00
2022-08-30T02:56:58.050Z,16.05
2022-08-30T02:59:26.948Z,16.00
2022-08-30T03:01:57.659Z,16.05
2022-08-30T03:04:26.969Z,16.06
2022-08-30T03:07:14.822Z,16.04
2022-08-30T03:09:44.314Z,16.06
2022-08-30T03:12:14.478Z,16.02
2022-08-30T03:14:43.492Z,15.98
2022-08-30T03:17:15.667Z,15.99
2022-08-30T03:19:46.336Z,16.01
2022-08-30T03:22:15.845Z,16.02
2022-08-30T03:24:45.393Z,16.05
2022-08-30T03:27:14.132Z,16.00
2022-08-30T03:29:44.414Z,15.98
2022-08-30T03:32:15.272Z,15.96
2022-08-30T03:34:44.287Z,15.92
2022-08-30T03:37:13.618Z,15.88
2022-08-30T03:39:42.836Z,15.88
2022-08-30T03:42:12.179Z,15.88
2022-08-30T03:44:41.701Z,15.83
2022-08-30T03:47:11.444Z,15.77
2022-08-30T03:49:41.519Z,15.78
2022-08-30T03:52:10.745Z,15.80
2022-08-30T03:54:40.837Z,15.77
2022-08-30T03:57:13.344Z,15.74
2022-08-30T03:59:49.384Z,15.76
2022-08-30T04:02:19.252Z,15.74
2022-08-30T04:04:49.610Z,15.74
2022-08-30T04:07:19.206Z,15.73
2022-08-30T04:09:48.651Z,15.71
2022-08-30T04:12:22.612Z,15.71
2022-08-30T04:14:52.276Z,15.69
2022-08-30T04:17:23.691Z,15.60
2022-08-30T04:19:53.672Z,15.62
2022-08-30T04:22:23.792Z,15.63
2022-08-30T04:24:52.363Z,15.64
2022-08-30T04:27:22.493Z,15.59
2022-08-30T04:29:51.621Z,15.55
2022-08-30T04:32:21.057Z,15.55
2022-08-30T04:34:49.809Z,15.50
2022-08-30T04:37:19.788Z,15.35
2022-08-30T04:39:50.883Z,15.31
2022-08-30T04:42:20.027Z,15.27
2022-08-30T04:44:51.543Z,15.21
2022-08-30T04:47:20.501Z,15.13
2022-08-30T04:49:49.602Z,15.13
2022-08-30T04:52:19.763Z,15.06
2022-08-30T04:54:48.445Z,14.96
2022-08-30T04:57:18.024Z,14.98
2022-08-30T04:59:48.113Z,15.03
2022-08-30T05:02:16.948Z,14.94
2022-08-30T05:04:59.318Z,14.98
2022-08-30T05:07:31.179Z,15.01
2022-08-30T05:10:00.735Z,14.97
2022-08-30T05:12:29.287Z,14.99
2022-08-30T05:14:58.698Z,14.93
2022-08-30T05:17:27.802Z,14.95
2022-08-30T05:19:56.367Z,14.98
2022-08-30T05:22:24.897Z,14.94
2022-08-30T05:24:55.372Z,14.99
2022-08-30T05:27:25.166Z,15.05
2022-08-30T05:29:53.648Z,15.06
2022-08-30T05:32:22.810Z,15.03
2022-08-30T05:34:51.994Z,15.07
2022-08-30T05:37:21.149Z,15.13
2022-08-30T05:39:51.971Z,15.13
2022-08-30T05:42:22.648Z,15.16
2022-08-30T05:44:53.485Z,15.18
2022-08-30T05:47:23.329Z,15.18
2022-08-30T05:49:52.335Z,15.20
2022-08-30T05:52:21.433Z,15.22
2022-08-30T05:54:55.732Z,15.24
2022-08-30T05:57:26.790Z,15.25
2022-08-30T05:59:55.322Z,15.28
2022-08-30T06:02:23.952Z,15.34
2022-08-30T06:04:52.488Z,15.39
2022-08-30T06:07:22.860Z,15.44
2022-08-30T06:09:51.980Z,15.50
2022-08-30T06:12:20.478Z,15.57
2022-08-30T06:14:51.009Z,15.67
2022-08-30T06:17:22.215Z,15.73
2022-08-30T06:19:51.529Z,15.81
2022-08-30T06:22:20.257Z,15.88
2022-08-30T06:24:57.993Z,15.97
2022-08-30T06:27:27.072Z,16.04
2022-08-30T06:29:57.392Z,16.08
2022-08-30T06:32:26.667Z,16.16
2022-08-30T06:34:55.223Z,16.24
2022-08-30T06:37:29.672Z,16.30
2022-08-30T06:39:59.669Z,16.36
2022-08-30T06:42:32.614Z,16.43
2022-08-30T06:45:11.104Z,16.50
2022-08-30T06:47:41.628Z,16.55
2022-08-30T06:50:15.824Z,16.60
2022-08-30T06:52:47.279Z,16.68
2022-08-30T06:55:18.006Z,16.75
2022-08-30T06:57:47.499Z,16.81
2022-08-30T07:00:18.788Z,16.89
2022-08-30T07:02:47.500Z,16.94
2022-08-30T07:05:18.948Z,17.01
2022-08-30T07:07:47.766Z,17.09
2022-08-30T07:10:17.310Z,17.17
2022-08-30T07:12:46.041Z,17.25
2022-08-30T07:15:20.541Z,17.34
2022-08-30T07:18:06.266Z,17.42
2022-08-30T07:20:40.044Z,17.51
2022-08-30T07:23:11.049Z,17.60
2022-08-30T07:25:41.411Z,17.69
2022-08-30T07:28:12.305Z,17.79
2022-08-30T07:30:43.553Z,17.87
2022-08-30T07:33:12.101Z,17.97
2022-08-30T07:35:40.748Z,18.06
2022-08-30T07:38:13.666Z,18.12
2022-08-30T07:40:42.815Z,18.20
2022-08-30T07:43:11.353Z,18.30
2022-08-30T07:45:42.535Z,18.38
2022-08-30T07:48:14.158Z,18.46
2022-08-30T07:50:47.433Z,18.54
2022-08-30T07:53:16.040Z,18.64
2022-08-30T07:55:44.607Z,18.72
2022-08-30T07:58:13.797Z,18.77
2022-08-30T08:00:43.991Z,18.85
2022-08-30T08:03:12.893Z,18.92
2022-08-30T08:05:44.127Z,19.01
2022-08-30T08:08:14.001Z,19.08
2022-08-30T08:10:44.085Z,19.16
2022-08-30T08:13:12.923Z,19.23
2022-08-30T08:15:44.292Z,19.29
2022-08-30T08:18:13.087Z,19.35
2022-08-30T08:20:42.273Z,19.41
2022-08-30T08:23:10.823Z,19.48
2022-08-30T08:25:43.079Z,19.54
2022-08-30T08:28:11.892Z,19.61
2022-08-30T08:30:47.612Z,19.67
2022-08-30T08:33:18.237Z,19.75
2022-08-30T08:35:46.916Z,19.80
2022-08-30T08:38:16.216Z,19.86
2022-08-30T08:41:01.958Z,19.95
2022-08-30T08:43:35.909Z,20.02
2022-08-30T08:46:16.135Z,20.08
2022-08-30T08:49:05.506Z,20.15
2022-08-30T08:51:54.768Z,20.22
2022-08-30T08:54:33.255Z,20.29
2022-08-30T08:57:02.705Z,20.33
2022-08-30T08:59:31.392Z,20.39
2022-08-30T09:02:16.510Z,20.45
2022-08-30T09:04:45.787Z,20.52
2022-08-30T09:07:23.193Z,20.57
2022-08-30T09:09:52.479Z,20.64
2022-08-30T09:12:22.032Z,20.71
2022-08-30T09:14:55.794Z,20.78
2022-08-30T09:17:25.799Z,20.84
2022-08-30T09:20:02.570Z,20.93
2022-08-30T09:22:38.334Z,21.01
2022-08-30T09:25:24.526Z,21.10
2022-08-30T09:27:56.012Z,21.19
2022-08-30T09:30:28.143Z,21.32
2022-08-30T09:33:01.679Z,21.42
2022-08-30T09:35:39.001Z,21.50
2022-08-30T09:38:10.743Z,21.58
2022-08-30T09:40:46.602Z,21.69
2022-08-30T09:43:24.306Z,21.79
2022-08-30T09:46:11.245Z,21.90
2022-08-30T09:48:47.555Z,22.01
2022-08-30T09:51:49.122Z,22.14
2022-08-30T09:54:27.311Z,22.22
2022-08-30T09:57:13.307Z,22.34
2022-08-30T09:59:52.358Z,22.43
2022-08-30T10:03:13.901Z,22.53
2022-08-30T10:05:58.864Z,22.61
2022-08-30T10:08:44.867Z,22.71
2022-08-30T10:11:25.538Z,22.76
2022-08-30T10:14:33.692Z,22.83
2022-08-30T10:17:13.606Z,22.88
2022-08-30T10:20:03.957Z,22.91
2022-08-30T10:22:40.127Z,22.97
2022-08-30T10:25:17.987Z,23.03
2022-08-30T10:27:53.381Z,23.10
2022-08-30T10:30:23.990Z,23.16
2022-08-30T10:33:01.669Z,23.20
2022-08-30T10:35:38.990Z,23.24
2022-08-30T10:38:19.735Z,23.29
2022-08-30T10:41:15.155Z,23.35
2022-08-30T10:43:55.167Z,23.42
2022-08-30T10:46:33.595Z,23.52
2022-08-30T10:49:09.945Z,23.58
2022-08-30T10:51:48.662Z,23.66
2022-08-30T10:54:32.583Z,23.76
2022-08-30T10:57:02.071Z,23.83
2022-08-30T10:59:31.586Z,23.92
2022-08-30T11:02:51.667Z,24.02
2022-08-30T11:05:43.777Z,24.08
2022-08-30T11:08:39.183Z,24.15
2022-08-30T11:11:28.402Z,24.20
2022-08-30T11:14:05.807Z,24.21
2022-08-30T11:16:41.796Z,24.22
2022-08-30T11:19:21.705Z,24.25
2022-08-30T11:21:52.041Z,24.29
2022-08-30T11:24:24.067Z,24.36
2022-08-30T11:27:03.479Z,24.42
2022-08-30T11:29:45.454Z,24.46
2022-08-30T11:32:57.396Z,24.51
2022-08-30T11:35:48.620Z,24.54
2022-08-30T11:39:06.311Z,24.58
2022-08-30T11:41:43.185Z,24.63
2022-08-30T11:44:32.527Z,24.66
2022-08-30T11:47:06.899Z,24.71
2022-08-30T11:50:09.933Z,24.77
2022-08-30T11:52:59.110Z,24.83
2022-08-30T11:55:53.373Z,24.89
2022-08-30T11:58:38.361Z,24.95
2022-08-30T12:01:41.823Z,25.03
2022-08-30T12:04:38.117Z,25.14
2022-08-30T12:07:10.027Z,25.19
2022-08-30T12:10:22.039Z,25.27
2022-08-30T12:12:59.583Z,25.36
2022-08-30T12:15:59.058Z,25.43
2022-08-30T12:18:43.242Z,25.50
2022-08-30T12:21:33.414Z,25.56
2022-08-30T12:24:22.462Z,25.63
2022-08-30T12:26:53.644Z,25.67
2022-08-30T12:29:25.388Z,25.74
2022-08-30T12:31:58.074Z,25.80
2022-08-30T12:34:35.139Z,25.87
2022-08-30T12:37:10.770Z,25.90
2022-08-30T12:39:42.880Z,25.99
2022-08-30T12:42:22.385Z,26.06
2022-08-30T12:44:54.947Z,26.10
2022-08-30T12:47:31.278Z,26.13
2022-08-30T12:50:02.766Z,26.16
2022-08-30T12:52:38.375Z,26.26
2022-08-30T12:55:17.659Z,26.35
2022-08-30T12:58:01.286Z,26.38
2022-08-30T13:00:34.329Z,26.42
2022-08-30T13:03:24.706Z,26.46
2022-08-30T13:05:57.531Z,26.56
2022-08-30T13:08:34.554Z,26.61
2022-08-30T13:11:09.099Z,26.71
2022-08-30T13:13:51.964Z,26.74
2022-08-30T13:16:29.565Z,26.83
2022-08-30T13:19:33.400Z,26.91
2022-08-30T13:22:05.734Z,26.98
2022-08-30T13:24:34.424Z,27.05
2022-08-30T13:27:09.765Z,27.11
2022-08-30T13:29:38.485Z,27.15
2022-08-30T13:32:07.349Z,27.19
2022-08-30T13:34:36.327Z,27.22
2022-08-30T13:37:44.108Z,27.24
2022-08-30T13:40:01.273Z,27.24
2022-08-30T13:42:33.538Z,27.27
2022-08-30T13:45:02.588Z,27.28
2022-08-30T13:47:34.876Z,27.29
2022-08-30T13:50:04.198Z,27.31
2022-08-30T13:52:34.207Z,27.31
2022-08-30T13:55:03.729Z,27.29
2022-08-30T14:00:23.790Z,27.25
2022-08-30T14:02:57.754Z,27.24
2022-08-30T14:11:18.663Z,27.18
2022-08-30T14:16:39.437Z,27.16
2022-08-30T14:19:08.719Z,27.12
2022-08-30T14:21:39.033Z,27.12
2022-08-30T14:24:09.795Z,27.13
2022-08-30T14:26:43.964Z,27.12
2022-08-30T14:29:17.964Z,27.13
2022-08-30T14:31:48.680Z,27.12
2022-08-30T14:34:23.349Z,27.10
2022-08-30T14:36:51.938Z,27.08
2022-08-30T14:39:23.442Z,27.09
2022-08-30T14:41:56.037Z,27.09
2022-08-30T14:44:26.396Z,27.10
2022-08-30T14:46:56.513Z,27.12
2022-08-30T14:49:26.922Z,27.13
2022-08-30T14:51:56.215Z,27.13
2022-08-30T14:54:29.929Z,27.13
2022-08-30T14:56:59.563Z,27.16
2022-08-30T14:59:28.337Z,27.18
2022-08-30T15:01:57.673Z,27.23
2022-08-30T15:04:26.795Z,27.27
2022-08-30T15:06:56.444Z,27.30
2022-08-30T15:09:28.675Z,27.34
2022-08-30T15:12:01.321Z,27.43
2022-08-30T15:14:33.372Z,27.48
2022-08-30T15:17:03.366Z,27.48
2022-08-30T15:19:34.019Z,27.52
2022-08-30T15:22:05.314Z,27.55
2022-08-30T15:24:36.083Z,27.58
2022-08-30T15:27:05.133Z,27.57
2022-08-30T15:29:39.062Z,27.57
2022-08-30T15:32:08.766Z,27.53
2022-08-30T15:34:38.258Z,27.54
2022-08-30T15:37:07.829Z,27.55
2022-08-30T15:39:38.036Z,27.49
2022-08-30T15:42:09.932Z,27.52
2022-08-30T15:44:38.897Z,27.52
2022-08-30T15:47:08.083Z,27.52
2022-08-30T15:49:36.772Z,27.52
2022-08-30T15:52:07.947Z,27.52
2022-08-30T15:54:38.342Z,27.55
2022-08-30T15:57:07.148Z,27.55
2022-08-30T15:59:35.696Z,27.52
2022-08-30T16:02:04.975Z,27.50
2022-08-30T16:04:34.526Z,27.46
2022-08-30T16:07:03.150Z,27.42
2022-08-30T16:09:32.980Z,27.37
2022-08-30T16:12:05.110Z,27.34
2022-08-30T16:14:34.184Z,27.31
2022-08-30T16:17:04.071Z,27.27
2022-08-30T16:19:33.695Z,27.27
2022-08-30T16:22:03.107Z,27.25
2022-08-30T16:24:32.120Z,27.22
2022-08-30T16:27:03.261Z,27.21
2022-08-30T16:29:35.958Z,27.20
2022-08-30T16:32:06.171Z,27.19
2022-08-30T16:34:35.871Z,27.17
2022-08-30T16:37:07.758Z,27.16
2022-08-30T16:39:36.815Z,27.15
2022-08-30T16:42:08.185Z,27.14
2022-08-30T16:44:36.778Z,27.12
2022-08-30T16:47:06.552Z,27.13
2022-08-30T16:49:37.827Z,27.10
2022-08-30T16:52:07.177Z,27.11
2022-08-30T16:54:35.683Z,27.11
2022-08-30T16:57:06.702Z,27.09
2022-08-30T16:59:35.470Z,27.06
2022-08-30T17:02:04.890Z,27.06
2022-08-30T17:04:33.458Z,27.02
2022-08-30T17:07:02.157Z,27.00
2022-08-30T17:09:31.054Z,27.00
2022-08-30T17:12:00.031Z,26.98
2022-08-30T17:14:30.678Z,26.98
2022-08-30T17:17:00.856Z,26.96
2022-08-30T17:19:31.469Z,26.95
2022-08-30T17:22:00.599Z,26.93
2022-08-30T17:24:30.088Z,26.92
2022-08-30T17:27:01.613Z,26.89
2022-08-30T17:29:31.558Z,26.87
2022-08-30T17:32:00.693Z,26.84
2022-08-30T17:34:29.535Z,26.80
2022-08-30T17:37:00.186Z,26.77
2022-08-30T17:39:30.598Z,26.74
2022-08-30T17:42:00.830Z,26.71
2022-08-30T17:44:38.110Z,26.67
2022-08-30T17:47:11.221Z,26.62
2022-08-30T17:49:40.141Z,26.59
2022-08-30T17:52:11.549Z,26.53
2022-08-30T17:54:41.700Z,26.47
2022-08-30T17:57:11.606Z,26.42
2022-08-30T17:59:41.990Z,26.32
2022-08-30T18:02:12.353Z,26.25
2022-08-30T18:04:42.568Z,26.15
2022-08-30T18:07:12.451Z,26.04
2022-08-30T18:09:42.012Z,25.94
2022-08-30T18:12:13.257Z,25.86
2022-08-30T18:14:44.858Z,25.79
2022-08-30T18:17:13.422Z,25.71
2022-08-30T18:19:46.496Z,25.60
2022-08-30T18:22:31.201Z,25.50
2022-08-30T18:25:02.594Z,25.39
2022-08-30T18:27:34.101Z,25.29
2022-08-30T18:30:11.863Z,25.22
2022-08-30T18:32:40.537Z,25.15
2022-08-30T18:35:10.901Z,25.00
2022-08-30T18:37:39.556Z,24.84
2022-08-30T18:40:10.095Z,24.74
2022-08-30T18:42:47.931Z,24.70
2022-08-30T18:45:17.941Z,24.54
2022-08-30T18:47:47.015Z,24.44
2022-08-30T18:50:21.920Z,24.35
2022-08-30T18:52:53.949Z,24.36
2022-08-30T18:55:24.637Z,24.30
2022-08-30T18:57:53.279Z,24.19
2022-08-30T19:00:24.152Z,24.05
2022-08-30T19:02:54.244Z,23.96
2022-08-30T19:05:24.085Z,23.92
2022-08-30T19:07:55.177Z,23.82
2022-08-30T19:10:27.003Z,23.71
2022-08-30T19:12:56.539Z,23.71
2022-08-30T19:15:26.941Z,23.70
2022-08-30T19:17:56.106Z,23.61
2022-08-30T19:20:26.065Z,23.56
2022-08-30T19:23:10.945Z,23.39
2022-08-30T19:25:41.798Z,23.35
2022-08-30T19:28:11.137Z,23.33
2022-08-30T19:30:41.518Z,23.25
2022-08-30T19:33:12.279Z,23.23
2022-08-30T19:35:41.113Z,23.19
2022-08-30T19:38:09.623Z,23.12
2022-08-30T19:40:38.142Z,23.08
2022-08-30T19:43:07.254Z,23.03
2022-08-30T19:45:36.359Z,22.98
2022-08-30T19:48:06.954Z,22.90
2022-08-30T19:50:36.699Z,22.83
2022-08-30T19:53:06.605Z,22.68
2022-08-30T19:55:37.258Z,22.67
2022-08-30T19:58:05.824Z,22.63
2022-08-30T20:00:34.440Z,22.60
2022-08-30T20:03:06.546Z,22.46
2022-08-30T20:05:36.050Z,22.44
2022-08-30T20:08:05.610Z,22.35
2022-08-30T20:10:34.446Z,22.29
2022-08-30T20:13:03.946Z,22.28
2022-08-30T20:15:33.780Z,22.24
2022-08-30T20:18:06.021Z,22.13
2022-08-30T20:20:49.812Z,22.04
2022-08-30T20:23:23.209Z,22.02
2022-08-30T20:25:55.746Z,22.03
2022-08-30T20:28:26.004Z,21.94
2022-08-30T20:30:55.950Z,21.93
2022-08-30T20:33:27.228Z,21.93
2022-08-30T20:36:00.958Z,21.88
2022-08-30T20:38:30.092Z,21.81
2022-08-30T20:41:01.222Z,21.77
2022-08-30T20:43:31.856Z,21.71
2022-08-30T20:46:00.385Z,21.64
2022-08-30T20:48:29.035Z,21.64
2022-08-30T20:50:59.004Z,21.61
2022-08-30T20:53:27.989Z,21.59
2022-08-30T20:55:56.594Z,21.55
2022-08-30T20:58:25.127Z,21.50
2022-08-30T21:00:55.141Z,21.50
2022-08-30T21:03:26.147Z,21.43
2022-08-30T21:05:58.727Z,21.40
2022-08-30T21:08:27.956Z,21.41
2022-08-30T21:10:56.672Z,21.42
2022-08-30T21:13:25.072Z,21.39
2022-08-30T21:15:55.251Z,21.38
2022-08-30T21:18:30.279Z,21.34
2022-08-30T21:21:00.811Z,21.30
2022-08-30T21:23:29.998Z,21.32
2022-08-30T21:26:05.145Z,21.27
2022-08-30T21:28:33.834Z,21.26
2022-08-30T21:31:08.364Z,21.25
2022-08-30T21:33:38.135Z,21.26
2022-08-30T21:36:27.549Z,21.19
2022-08-30T21:39:00.464Z,21.18
2022-08-30T21:41:31.694Z,21.11
2022-08-30T21:44:03.716Z,21.12
2022-08-30T21:46:34.356Z,21.07
2022-08-30T21:49:06.656Z,21.09
2022-08-30T21:51:39.569Z,21.08
2022-08-30T21:54:11.049Z,21.07
2022-08-30T21:56:43.194Z,21.03
2022-08-30T21:59:13.328Z,21.03
2022-08-30T22:01:44.397Z,20.97
2022-08-30T22:04:14.426Z,20.95
2022-08-30T22:06:50.422Z,20.94
2022-08-30T22:09:23.768Z,20.94
2022-08-30T22:11:52.728Z,20.94
2022-08-30T22:14:22.348Z,20.93
2022-08-30T22:16:51.642Z,20.93
2022-08-30T22:19:23.313Z,20.93
2022-08-30T22:22:01.023Z,20.91
2022-08-30T22:24:31.984Z,20.91
2022-08-30T22:27:02.992Z,20.91
2022-08-30T22:29:31.790Z,20.86
2022-08-30T22:32:01.181Z,20.82
2022-08-30T22:34:30.099Z,20.83
2022-08-30T22:37:00.829Z,20.83
2022-08-30T22:39:29.443Z,20.84
2022-08-30T22:41:57.887Z,20.82
2022-08-30T22:44:26.620Z,20.81
2022-08-30T22:46:55.255Z,20.82
2022-08-30T22:49:23.763Z,20.80
2022-08-30T22:51:53.107Z,20.78
2022-08-30T22:54:23.867Z,20.78
2022-08-30T22:56:52.476Z,20.76
2022-08-30T22:59:24.385Z,20.75
2022-08-30T23:02:00.934Z,20.77
2022-08-30T23:04:29.615Z,20.75
2022-08-30T23:06:58.983Z,20.74
2022-08-30T23:09:29.100Z,20.70
2022-08-30T23:11:58.259Z,20.72
2022-08-30T23:14:27.708Z,20.73
2022-08-30T23:16:56.250Z,20.71
2022-08-30T23:19:24.825Z,20.72
2022-08-30T23:21:54.093Z,20.71
2022-08-30T23:24:39.970Z,20.68
2022-08-30T23:27:26.875Z,20.67
2022-08-30T23:30:12.862Z,20.66
2022-08-30T23:32:58.781Z,20.66
2022-08-30T23:35:44.738Z,20.62
2022-08-30T23:38:31.309Z,20.59
2022-08-30T23:41:17.419Z,20.61
2022-08-30T23:44:05.229Z,20.58
2022-08-30T23:46:51.469Z,20.58
2022-08-30T23:49:37.666Z,20.63
2022-08-30T23:52:23.986Z,20.64
2022-08-30T23:55:09.693Z,20.65
2022-08-30T23:57:55.663Z,20.61
